Time;durP1;ratioP1;P1;durP2;ratioP2;P2;SDS_P1;SDS_P2;PMS_P1;PMS_P2;Temp;Humidity;BMP_temperature;BMP_pressure;BME280_temperature;BME280_humidity;BME280_pressure;Samples;Min_cycle;Max_cycle;Signal;HPM_P1;HPM_P2
2023/09/04 00:01:40;;;;;;;3.30;1.00;;;17.00;99.90;;;;;;5075928;28;20479;-80
2023/09/04 00:04:08;;;;;;;1.70;1.20;;;16.90;99.90;;;;;;5075976;28;20444;-80
2023/09/04 00:06:35;;;;;;;1.40;1.17;;;16.90;99.90;;;;;;5075815;28;20527;-80
2023/09/04 00:09:04;;;;;;;1.33;1.23;;;17.00;99.90;;;;;;5075449;28;21026;-80
2023/09/04 00:11:31;;;;;;;1.57;1.40;;;16.90;99.90;;;;;;5075768;28;20784;-80
2023/09/04 00:13:58;;;;;;;0.80;0.80;;;16.90;99.90;;;;;;5075774;28;20440;-80
2023/09/04 00:16:25;;;;;;;1.30;1.20;;;16.90;99.90;;;;;;5075294;28;20994;-80
2023/09/04 00:18:51;;;;;;;1.60;1.47;;;16.80;99.90;;;;;;5075694;28;20814;-81
2023/09/04 00:21:18;;;;;;;1.10;1.00;;;16.90;99.90;;;;;;5075364;28;20807;-80
2023/09/04 00:23:45;;;;;;;1.37;1.27;;;16.80;99.90;;;;;;5075548;28;20449;-80
2023/09/04 00:26:13;;;;;;;1.63;1.53;;;16.80;99.90;;;;;;5075313;28;20449;-80
2023/09/04 00:28:40;;;;;;;1.70;1.33;;;16.80;99.90;;;;;;5075044;28;20547;-80
2023/09/04 00:31:06;;;;;;;0.97;0.77;;;16.70;99.90;;;;;;5075130;28;20830;-80
2023/09/04 00:33:33;;;;;;;2.20;1.27;;;16.80;99.90;;;;;;5075361;28;20460;-80
2023/09/04 00:36:02;;;;;;;1.13;0.97;;;16.80;99.90;;;;;;5075272;28;20468;-80
2023/09/04 00:38:29;;;;;;;2.40;1.33;;;16.70;99.90;;;;;;5075263;28;20437;-80
2023/09/04 00:40:56;;;;;;;1.03;0.80;;;16.80;99.90;;;;;;5074890;28;20448;-80
2023/09/04 00:43:24;;;;;;;1.30;1.20;;;16.70;99.90;;;;;;5075228;28;20433;-80
2023/09/04 00:45:51;;;;;;;1.30;1.20;;;16.70;99.90;;;;;;5075076;28;20453;-80
2023/09/04 00:48:19;;;;;;;0.73;0.73;;;16.70;99.90;;;;;;5075003;28;20476;-80
2023/09/04 00:50:45;;;;;;;0.90;0.90;;;16.70;99.90;;;;;;5075048;28;20480;-80
2023/09/04 00:53:13;;;;;;;2.43;1.60;;;16.60;99.90;;;;;;5074656;28;20935;-80
2023/09/04 00:55:40;;;;;;;2.00;1.40;;;16.60;99.90;;;;;;5074574;28;20473;-80
2023/09/04 00:58:06;;;;;;;1.20;1.10;;;16.60;99.90;;;;;;5074913;28;20464;-80
2023/09/04 01:00:34;;;;;;;1.53;1.00;;;16.50;99.90;;;;;;5074834;28;20448;-80
2023/09/04 01:03:02;;;;;;;1.20;0.87;;;16.50;99.90;;;;;;5074799;28;20448;-80
2023/09/04 01:05:31;;;;;;;1.70;0.90;;;16.50;99.90;;;;;;5074546;28;20465;-80
2023/09/04 01:07:58;;;;;;;0.83;0.80;;;16.50;99.90;;;;;;5074336;28;21026;-80
2023/09/04 01:10:27;;;;;;;0.83;0.83;;;16.50;99.90;;;;;;5074563;28;20826;-80
2023/09/04 01:13:00;;;;;;;1.00;1.00;;;16.80;99.90;;;;;;5074333;28;20445;-80
2023/09/04 01:15:28;;;;;;;0.80;0.80;;;16.50;99.90;;;;;;5074489;28;20472;-80
2023/09/04 01:17:56;;;;;;;0.97;0.90;;;16.50;99.90;;;;;;5074162;28;20451;-80
2023/09/04 01:20:26;;;;;;;1.83;1.33;;;16.50;99.90;;;;;;5074125;28;20941;-80
2023/09/04 01:22:53;;;;;;;0.80;0.80;;;16.50;99.90;;;;;;5074030;28;20934;-80
2023/09/04 01:25:21;;;;;;;0.80;0.80;;;16.50;99.90;;;;;;5073997;28;20528;-80
2023/09/04 01:27:56;;;;;;;1.83;1.10;;;16.40;99.90;;;;;;5073866;28;20465;-80
2023/09/04 01:30:29;;;;;;;1.40;1.10;;;16.40;99.90;;;;;;5074176;28;20563;-80
2023/09/04 01:33:00;;;;;;;1.63;1.47;;;16.40;99.90;;;;;;5074236;28;20434;-80
2023/09/04 01:35:30;;;;;;;0.87;0.80;;;16.30;99.90;;;;;;5074097;28;20468;-80
2023/09/04 01:37:58;;;;;;;1.90;0.97;;;16.30;99.90;;;;;;5073828;28;20428;-80
2023/09/04 01:40:25;;;;;;;4.80;1.20;;;16.30;99.90;;;;;;5073732;28;20451;-80
2023/09/04 01:42:51;;;;;;;1.00;0.87;;;16.20;99.90;;;;;;5073979;28;20824;-80
2023/09/04 01:45:18;;;;;;;1.23;0.90;;;16.20;99.90;;;;;;5073698;28;20461;-80
2023/09/04 01:47:46;;;;;;;1.60;1.10;;;16.20;99.90;;;;;;5073903;28;20449;-80
2023/09/04 01:50:13;;;;;;;1.63;1.23;;;16.10;99.90;;;;;;5073777;28;20516;-80
2023/09/04 01:52:41;;;;;;;6.10;1.40;;;16.10;99.90;;;;;;5073825;28;20857;-80
2023/09/04 01:55:08;;;;;;;1.93;1.40;;;16.10;99.90;;;;;;5073524;28;20433;-80
2023/09/04 01:57:35;;;;;;;1.33;0.90;;;16.10;99.90;;;;;;5073768;28;20448;-80
2023/09/04 02:00:02;;;;;;;1.23;1.07;;;16.10;99.90;;;;;;5073479;28;20445;-80
2023/09/04 02:02:29;;;;;;;7.80;1.40;;;16.00;99.90;;;;;;5073665;28;20444;-80
2023/09/04 02:04:56;;;;;;;1.40;0.73;;;16.00;99.90;;;;;;5073554;28;20456;-80
2023/09/04 02:07:22;;;;;;;2.50;1.10;;;16.00;99.90;;;;;;5073548;28;20444;-80
2023/09/04 02:09:50;;;;;;;1.20;1.13;;;16.00;99.90;;;;;;5073224;28;20488;-80
2023/09/04 02:12:17;;;;;;;1.87;1.20;;;16.00;99.90;;;;;;5073543;28;20448;-80
2023/09/04 02:14:44;;;;;;;1.03;1.03;;;16.00;99.90;;;;;;5073206;28;20946;-80
2023/09/04 02:17:11;;;;;;;6.20;1.10;;;16.00;99.90;;;;;;5072944;28;20471;-80
2023/09/04 02:19:38;;;;;;;2.80;1.23;;;16.00;99.90;;;;;;5073413;28;20445;-80
2023/09/04 02:22:05;;;;;;;1.17;1.03;;;15.90;99.90;;;;;;5073393;28;20813;-80
2023/09/04 02:24:33;;;;;;;1.27;1.17;;;15.90;99.90;;;;;;5073321;28;20453;-80
2023/09/04 02:27:01;;;;;;;1.00;0.90;;;15.90;99.90;;;;;;5073330;28;20836;-80
2023/09/04 02:29:29;;;;;;;3.73;1.07;;;15.90;99.90;;;;;;5072597;28;20990;-80
2023/09/04 02:31:56;;;;;;;1.40;1.20;;;15.90;99.90;;;;;;5073335;28;20445;-80
2023/09/04 02:34:23;;;;;;;3.47;1.57;;;15.90;99.90;;;;;;5073345;28;20429;-80
2023/09/04 02:36:49;;;;;;;2.10;1.43;;;15.90;99.90;;;;;;5072861;28;20461;-80
2023/09/04 02:39:16;;;;;;;1.23;1.00;;;15.80;99.90;;;;;;5073244;28;20448;-80
2023/09/04 02:41:43;;;;;;;2.10;1.50;;;15.80;99.90;;;;;;5073229;28;20474;-80
2023/09/04 02:44:11;;;;;;;1.40;1.30;;;15.80;99.90;;;;;;5073219;28;20437;-81
2023/09/04 02:46:38;;;;;;;2.07;1.30;;;15.80;99.90;;;;;;5074023;28;20461;-80
2023/09/04 02:49:04;;;;;;;1.90;1.37;;;15.80;99.90;;;;;;5073033;28;20961;-80
2023/09/04 02:51:31;;;;;;;0.83;0.80;;;15.70;99.90;;;;;;5073159;28;20455;-80
2023/09/04 02:53:58;;;;;;;1.63;1.53;;;15.60;99.90;;;;;;5073132;28;20447;-80
2023/09/04 02:56:25;;;;;;;1.93;1.40;;;15.70;99.90;;;;;;5072966;28;20454;-81
2023/09/04 02:58:51;;;;;;;1.13;1.10;;;15.70;99.90;;;;;;5072704;28;20828;-80
2023/09/04 03:01:19;;;;;;;3.03;1.37;;;15.70;99.90;;;;;;5072777;28;20439;-80
2023/09/04 03:03:47;;;;;;;1.30;1.00;;;15.70;99.90;;;;;;5073011;28;20449;-81
2023/09/04 03:06:13;;;;;;;1.27;1.17;;;15.90;99.90;;;;;;5072717;28;20515;-81
2023/09/04 03:08:40;;;;;;;1.63;1.53;;;15.70;99.90;;;;;;5072616;28;20459;-81
2023/09/04 03:11:10;;;;;;;1.53;0.93;;;15.60;99.90;;;;;;5072881;28;20484;-81
2023/09/04 03:13:37;;;;;;;1.10;1.10;;;15.70;99.90;;;;;;5073211;28;20440;-81
2023/09/04 03:16:05;;;;;;;2.30;1.10;;;15.70;99.90;;;;;;5072518;28;20981;-81
2023/09/04 03:18:33;;;;;;;2.87;1.47;;;15.70;99.90;;;;;;5072859;28;20478;-81
2023/09/04 03:21:01;;;;;;;1.40;1.30;;;15.90;99.90;;;;;;5072548;28;20999;-80
2023/09/04 03:23:28;;;;;;;1.43;1.33;;;15.70;99.90;;;;;;5072776;28;20448;-80
2023/09/04 03:25:56;;;;;;;1.50;1.30;;;15.70;99.90;;;;;;5072723;28;20461;-80
2023/09/04 03:28:23;;;;;;;1.93;1.13;;;15.60;99.90;;;;;;5074125;28;20483;-80
2023/09/04 03:30:50;;;;;;;3.27;1.30;;;15.60;99.90;;;;;;5076196;28;20476;-80
2023/09/04 03:33:17;;;;;;;2.17;1.30;;;15.60;99.90;;;;;;5076482;28;20449;-80
2023/09/04 03:35:45;;;;;;;1.10;1.00;;;15.60;99.90;;;;;;5076356;28;20471;-80
2023/09/04 03:38:12;;;;;;;1.80;1.00;;;15.60;99.90;;;;;;5076025;28;20813;-80
2023/09/04 03:40:39;;;;;;;1.03;0.90;;;15.60;99.90;;;;;;5076045;28;20976;-80
2023/09/04 03:43:06;;;;;;;1.23;0.80;;;15.50;99.90;;;;;;5076328;28;20456;-80
2023/09/04 03:45:34;;;;;;;1.97;1.20;;;15.50;99.90;;;;;;5076165;28;20479;-80
2023/09/04 03:48:01;;;;;;;0.70;0.70;;;15.50;99.90;;;;;;5075940;28;20825;-80
2023/09/04 03:50:28;;;;;;;1.03;0.70;;;15.40;99.90;;;;;;5076117;28;20480;-80
2023/09/04 03:52:56;;;;;;;2.70;1.27;;;15.40;99.90;;;;;;5075855;28;20549;-80
2023/09/04 03:55:24;;;;;;;2.83;1.30;;;15.30;99.90;;;;;;5075991;28;20519;-81
2023/09/04 03:57:51;;;;;;;1.00;0.93;;;15.40;99.90;;;;;;5076054;28;20452;-80
2023/09/04 04:00:18;;;;;;;1.83;1.10;;;15.40;99.90;;;;;;5075679;28;21007;-80
2023/09/04 04:02:47;;;;;;;1.90;1.47;;;15.40;99.90;;;;;;5075632;28;20453;-80
2023/09/04 04:05:14;;;;;;;1.63;1.27;;;15.40;99.90;;;;;;5075549;28;21052;-81
2023/09/04 04:07:42;;;;;;;2.13;1.47;;;15.40;99.90;;;;;;5075845;28;20448;-81
2023/09/04 04:10:10;;;;;;;1.03;1.03;;;15.40;99.90;;;;;;5075798;28;20473;-81
2023/09/04 04:12:37;;;;;;;1.00;1.00;;;15.40;99.90;;;;;;5075542;28;20433;-80
2023/09/04 04:15:06;;;;;;;1.73;1.00;;;15.30;99.90;;;;;;5075380;28;20952;-80
2023/09/04 04:17:33;;;;;;;1.43;1.10;;;15.30;99.90;;;;;;5075649;28;20452;-81
2023/09/04 04:20:00;;;;;;;1.13;1.00;;;15.30;99.90;;;;;;5075657;28;20436;-81
2023/09/04 04:22:27;;;;;;;1.30;1.10;;;15.30;99.90;;;;;;5075533;28;20449;-80
2023/09/04 04:24:53;;;;;;;1.77;1.37;;;15.30;99.90;;;;;;5075232;28;20449;-81
2023/09/04 04:27:22;;;;;;;1.60;1.43;;;15.20;99.90;;;;;;5075083;28;20957;-81
2023/09/04 04:29:50;;;;;;;4.00;1.40;;;15.20;99.90;;;;;;5075073;28;20480;-81
2023/09/04 04:32:16;;;;;;;2.30;1.03;;;15.20;99.90;;;;;;5075148;28;20429;-80
2023/09/04 04:34:43;;;;;;;2.10;1.20;;;15.30;99.90;;;;;;5075386;28;20449;-80
2023/09/04 04:37:10;;;;;;;1.70;1.30;;;15.30;99.90;;;;;;5075250;28;20476;-81
2023/09/04 04:39:37;;;;;;;0.90;0.90;;;15.30;99.90;;;;;;5074577;28;20438;-81
2023/09/04 04:42:04;;;;;;;1.57;1.13;;;15.30;99.90;;;;;;5074909;28;20942;-80
2023/09/04 04:44:32;;;;;;;1.70;1.03;;;15.30;99.90;;;;;;5074877;28;20445;-80
2023/09/04 04:46:59;;;;;;;1.73;0.90;;;15.30;99.90;;;;;;5075023;28;20543;-80
2023/09/04 04:49:26;;;;;;;10.13;1.67;;;15.20;99.90;;;;;;5075117;28;20436;-80
2023/09/04 04:51:54;;;;;;;0.80;0.80;;;15.20;99.90;;;;;;5075035;28;20449;-80
2023/09/04 04:54:21;;;;;;;3.90;2.07;;;15.20;99.90;;;;;;5074875;28;20503;-80
2023/09/04 04:56:48;;;;;;;1.97;1.13;;;15.20;99.90;;;;;;5074570;28;20465;-80
2023/09/04 04:59:15;;;;;;;2.50;1.40;;;15.10;99.90;;;;;;5074968;28;20448;-80
2023/09/04 05:01:44;;;;;;;2.40;1.70;;;15.10;99.90;;;;;;5074796;28;20444;-80
2023/09/04 05:04:11;;;;;;;4.50;1.10;;;15.00;99.90;;;;;;5074767;28;20452;-80
2023/09/04 05:06:38;;;;;;;2.70;1.70;;;15.10;99.90;;;;;;5074626;28;20461;-80
2023/09/04 05:09:05;;;;;;;1.17;1.03;;;15.00;99.90;;;;;;5074456;28;20893;-80
2023/09/04 05:11:32;;;;;;;1.07;0.97;;;15.00;99.90;;;;;;5074302;28;20508;-80
2023/09/04 05:13:59;;;;;;;2.03;1.30;;;15.10;99.90;;;;;;5074586;28;20440;-80
2023/09/04 05:16:26;;;;;;;4.80;1.47;;;15.10;99.90;;;;;;5074467;28;20465;-80
2023/09/04 05:18:55;;;;;;;2.30;1.60;;;15.10;99.90;;;;;;5074159;28;20858;-80
2023/09/04 05:21:21;;;;;;;2.43;1.47;;;15.10;99.90;;;;;;5074463;28;20437;-80
2023/09/04 05:23:48;;;;;;;2.43;2.13;;;15.10;99.90;;;;;;5074362;28;20445;-80
2023/09/04 05:26:15;;;;;;;2.20;1.40;;;15.20;99.90;;;;;;5074276;28;20469;-80
2023/09/04 05:28:42;;;;;;;2.00;1.77;;;15.10;99.90;;;;;;5073711;28;20896;-80
2023/09/04 05:31:09;;;;;;;1.47;1.37;;;15.20;99.90;;;;;;5073962;28;20476;-80
2023/09/04 05:33:35;;;;;;;1.43;1.40;;;15.30;99.90;;;;;;5073887;28;20954;-80
2023/09/04 05:36:05;;;;;;;2.73;1.63;;;15.30;99.90;;;;;;5074088;28;20465;-80
2023/09/04 05:38:32;;;;;;;2.10;1.23;;;15.30;99.90;;;;;;5074117;28;20449;-80
2023/09/04 05:40:59;;;;;;;3.07;1.53;;;15.30;99.90;;;;;;5074103;28;20441;-80
2023/09/04 05:43:26;;;;;;;1.47;1.20;;;15.30;99.90;;;;;;5074053;28;20531;-80
2023/09/04 05:45:52;;;;;;;1.70;1.60;;;15.40;99.90;;;;;;5073625;28;20972;-80
2023/09/04 05:48:19;;;;;;;4.90;2.07;;;15.40;99.90;;;;;;5073911;28;20445;-80
2023/09/04 05:50:46;;;;;;;1.83;1.47;;;15.50;99.90;;;;;;5073045;28;20847;-80
2023/09/04 05:53:14;;;;;;;1.93;1.50;;;15.60;99.90;;;;;;5073541;28;20949;-80
2023/09/04 05:55:42;;;;;;;2.13;1.93;;;15.70;99.90;;;;;;5073500;28;20980;-80
2023/09/04 05:58:10;;;;;;;2.10;1.27;;;15.70;99.90;;;;;;5073743;28;20451;-80
2023/09/04 06:00:37;;;;;;;2.63;1.23;;;15.80;99.90;;;;;;5073469;28;20444;-80
2023/09/04 06:03:04;;;;;;;3.00;1.23;;;15.80;99.90;;;;;;5073865;28;20457;-80
2023/09/04 06:05:31;;;;;;;5.07;1.70;;;15.90;99.90;;;;;;5073583;28;20460;-80
2023/09/04 06:07:58;;;;;;;2.13;1.53;;;16.00;99.90;;;;;;5073287;28;20457;-80
2023/09/04 06:10:26;;;;;;;2.30;1.53;;;16.00;99.90;;;;;;5073522;28;20485;-80
2023/09/04 06:12:54;;;;;;;2.93;1.60;;;16.00;99.90;;;;;;5074170;28;20448;-80
2023/09/04 06:15:21;;;;;;;1.80;1.30;;;16.10;99.90;;;;;;5076076;28;20476;-80
2023/09/04 06:17:48;;;;;;;2.90;1.63;;;16.10;99.90;;;;;;5073392;28;20448;-80
2023/09/04 06:20:16;;;;;;;2.07;1.73;;;16.20;99.90;;;;;;5073454;28;20439;-80
2023/09/04 06:22:43;;;;;;;2.60;1.67;;;16.30;99.90;;;;;;5073417;28;20452;-80
2023/09/04 06:25:10;;;;;;;2.00;1.80;;;16.30;99.90;;;;;;5073047;28;20441;-80
2023/09/04 06:27:38;;;;;;;2.50;1.67;;;16.50;99.90;;;;;;5073163;28;20444;-80
2023/09/04 06:30:06;;;;;;;2.20;2.00;;;16.70;99.90;;;;;;5073503;28;20437;-80
2023/09/04 06:32:33;;;;;;;1.63;1.30;;;16.90;99.90;;;;;;5072878;28;20445;-80
2023/09/04 06:35:00;;;;;;;3.63;2.10;;;17.00;99.90;;;;;;5073925;28;20475;-80
2023/09/04 06:37:27;;;;;;;2.47;2.10;;;17.20;99.90;;;;;;5073238;28;20542;-80
2023/09/04 06:39:53;;;;;;;2.80;1.50;;;17.40;99.90;;;;;;5072805;28;20448;-81
2023/09/04 06:42:20;;;;;;;3.93;1.60;;;17.50;99.90;;;;;;5073527;28;20437;-81
2023/09/04 06:44:48;;;;;;;1.90;1.77;;;17.70;99.90;;;;;;5073196;28;20455;-80
2023/09/04 06:47:15;;;;;;;1.53;1.37;;;17.80;99.90;;;;;;5073045;28;20516;-80
2023/09/04 06:49:42;;;;;;;2.50;1.63;;;17.90;99.90;;;;;;5073555;28;20815;-80
2023/09/04 06:52:08;;;;;;;3.60;1.97;;;18.10;99.90;;;;;;5073023;28;20488;-80
2023/09/04 06:54:35;;;;;;;2.03;1.50;;;18.10;99.90;;;;;;5073125;28;20429;-80
2023/09/04 06:57:03;;;;;;;4.67;1.60;;;18.20;99.90;;;;;;5073034;28;20468;-80
2023/09/04 06:59:29;;;;;;;2.07;1.30;;;18.30;99.90;;;;;;5073021;28;20871;-80
2023/09/04 07:01:57;;;;;;;1.87;1.70;;;18.50;99.90;;;;;;5074192;28;20473;-80
2023/09/04 07:04:24;;;;;;;4.87;1.93;;;18.60;99.90;;;;;;5077019;28;20448;-80
2023/09/04 07:06:51;;;;;;;3.73;2.33;;;18.60;99.90;;;;;;5076666;28;20838;-80
2023/09/04 07:09:18;;;;;;;3.00;1.70;;;18.70;99.90;;;;;;5076575;28;20441;-80
2023/09/04 07:11:44;;;;;;;3.03;1.80;;;18.70;99.90;;;;;;5076879;28;20480;-80
2023/09/04 07:14:11;;;;;;;3.87;2.10;;;18.80;99.90;;;;;;5077166;28;20441;-80
2023/09/04 07:16:38;;;;;;;2.27;1.87;;;18.90;99.90;;;;;;5076788;28;20471;-80
2023/09/04 07:19:07;;;;;;;1.93;1.77;;;19.00;99.90;;;;;;5076449;28;20455;-80
2023/09/04 07:21:33;;;;;;;2.97;1.97;;;19.20;99.90;;;;;;5076731;28;20445;-80
2023/09/04 07:24:00;;;;;;;1.70;1.60;;;19.30;99.90;;;;;;5076504;28;20791;-79
2023/09/04 07:26:27;;;;;;;2.57;1.80;;;19.50;99.90;;;;;;5076542;28;20465;-80
2023/09/04 07:28:54;;;;;;;3.27;1.87;;;19.60;99.90;;;;;;5076171;28;20476;-80
2023/09/04 07:31:21;;;;;;;2.33;1.90;;;19.60;99.90;;;;;;5076189;28;20992;-81
2023/09/04 07:33:49;;;;;;;2.33;1.80;;;19.70;99.90;;;;;;5076143;28;20441;-80
2023/09/04 07:36:17;;;;;;;2.30;1.60;;;19.70;99.90;;;;;;5076183;28;20452;-80
2023/09/04 07:38:46;;;;;;;2.53;1.80;;;19.80;99.90;;;;;;5076371;28;20445;-81
2023/09/04 07:41:12;;;;;;;2.67;1.77;;;20.00;99.90;;;;;;5076378;28;20437;-80
2023/09/04 07:43:39;;;;;;;4.40;2.20;;;20.00;99.90;;;;;;5076357;28;20447;-80
2023/09/04 07:46:06;;;;;;;2.50;1.37;;;20.10;99.90;;;;;;5076216;28;20465;-82
2023/09/04 07:48:33;;;;;;;1.63;1.50;;;20.30;99.90;;;;;;5076288;28;20440;-80
2023/09/04 07:51:00;;;;;;;1.90;1.70;;;20.40;99.90;;;;;;5075813;28;20993;-80
2023/09/04 07:53:28;;;;;;;2.20;1.70;;;20.40;99.90;;;;;;5076173;28;20440;-80
2023/09/04 07:55:55;;;;;;;3.33;1.70;;;20.40;99.90;;;;;;5076050;28;20463;-80
2023/09/04 07:58:22;;;;;;;2.00;1.47;;;20.50;99.90;;;;;;5076077;28;20480;-80
2023/09/04 08:00:50;;;;;;;1.80;1.57;;;20.50;99.90;;;;;;5076003;28;20440;-81
2023/09/04 08:03:18;;;;;;;1.57;1.47;;;20.60;99.90;;;;;;5075654;28;20812;-81
2023/09/04 08:05:45;;;;;;;1.33;1.23;;;20.70;99.90;;;;;;5075874;28;20472;-80
2023/09/04 08:08:12;;;;;;;1.40;1.30;;;20.80;99.90;;;;;;5075587;28;20448;-81
2023/09/04 08:10:43;;;;;;;2.87;2.30;;;20.90;99.90;;;;;;5075469;28;20451;-81
2023/09/04 08:13:11;;;;;;;1.30;1.20;;;21.10;99.90;;;;;;5074817;28;20424;-81
2023/09/04 08:15:38;;;;;;;1.63;1.53;;;21.10;99.90;;;;;;5075633;28;20460;-79
2023/09/04 08:18:06;;;;;;;2.60;1.60;;;21.10;99.90;;;;;;5075800;28;20448;-80
2023/09/04 08:20:32;;;;;;;2.07;1.97;;;21.20;99.90;;;;;;5075332;28;20455;-79
2023/09/04 08:22:59;;;;;;;1.60;1.50;;;21.30;99.90;;;;;;5061047;28;20441;-79
2023/09/04 08:25:26;;;;;;;1.40;1.23;;;21.30;99.90;;;;;;5056146;28;20465;-79
2023/09/04 08:27:54;;;;;;;1.73;1.63;;;21.40;99.90;;;;;;5055090;28;20469;-81
2023/09/04 08:30:21;;;;;;;3.53;1.67;;;21.50;99.90;;;;;;5055466;28;20547;-80
2023/09/04 08:32:48;;;;;;;1.50;1.40;;;21.70;99.90;;;;;;5055037;28;20855;-79
2023/09/04 08:35:17;;;;;;;2.53;1.87;;;22.00;99.90;;;;;;5055034;28;20445;-79
2023/09/04 08:37:44;;;;;;;1.40;1.30;;;21.90;99.90;;;;;;5054999;28;20445;-80
2023/09/04 08:40:12;;;;;;;2.67;1.80;;;21.90;99.90;;;;;;5055340;28;20433;-82
2023/09/04 08:42:40;;;;;;;1.47;1.37;;;22.10;99.90;;;;;;5055281;28;20438;-79
2023/09/04 08:45:09;;;;;;;2.17;1.80;;;22.10;99.90;;;;;;5055102;28;20449;-81
2023/09/04 08:47:40;;;;;;;2.60;2.00;;;22.30;99.90;;;;;;5055162;28;20503;-79
2023/09/04 08:50:07;;;;;;;1.83;1.70;;;22.30;99.90;;;;;;5054845;28;20907;-81
2023/09/04 08:52:37;;;;;;;1.47;1.30;;;22.30;99.90;;;;;;5054850;28;20503;-80
2023/09/04 08:55:04;;;;;;;1.30;1.20;;;22.50;99.90;;;;;;5054643;28;20927;-81
2023/09/04 08:57:32;;;;;;;1.50;1.40;;;22.60;99.90;;;;;;5054653;28;20464;-81
2023/09/04 08:59:59;;;;;;;1.63;1.40;;;22.60;99.90;;;;;;5054631;28;20503;-80
2023/09/04 09:02:27;;;;;;;2.00;1.50;;;22.80;99.90;;;;;;5054845;28;20448;-80
2023/09/04 09:04:56;;;;;;;2.60;2.00;;;23.00;99.90;;;;;;5054841;28;20437;-80
2023/09/04 09:07:23;;;;;;;3.83;1.43;;;23.40;99.90;;;;;;5054796;28;20616;-80
2023/09/04 09:09:52;;;;;;;1.90;1.73;;;23.60;99.90;;;;;;5054437;28;20209;-80
2023/09/04 09:12:18;;;;;;;1.50;1.40;;;23.70;99.90;;;;;;5054577;28;20233;-80
2023/09/04 09:14:45;;;;;;;1.63;1.07;;;23.70;99.90;;;;;;5054657;28;20199;-80
2023/09/04 09:17:14;;;;;;;1.25;1.15;;;23.90;99.90;;;;;;5054523;28;20222;-81
2023/09/04 09:19:44;;;;;;;1.55;1.40;;;24.00;99.90;;;;;;5054224;28;20672;-79
2023/09/04 09:22:12;;;;;;;1.63;1.52;;;24.10;99.90;;;;;;5054420;28;20225;-80
2023/09/04 09:24:53;;;;;;;1.67;1.10;;;24.30;99.90;;;;;;5054335;28;20186;-80
2023/09/04 09:27:21;;;;;;;1.77;1.48;;;24.40;99.90;;;;;;5053918;28;20218;-79
2023/09/04 09:29:48;;;;;;;1.83;1.35;;;24.40;99.90;;;;;;5054051;28;20572;-80
2023/09/04 09:32:17;;;;;;;2.20;1.50;;;24.30;99.90;;;;;;5054051;28;20225;-81
2023/09/04 09:34:50;;;;;;;1.13;1.07;;;24.20;99.90;;;;;;5054253;28;20214;-81
2023/09/04 09:37:17;;;;;;;1.70;1.47;;;24.20;99.90;;;;;;5054143;28;20226;-80
2023/09/04 09:39:44;;;;;;;1.48;1.38;;;24.10;99.90;;;;;;5053916;28;20564;-80
2023/09/04 09:42:11;;;;;;;1.98;1.40;;;24.00;99.90;;;;;;5054041;28;20603;-81
2023/09/04 09:44:38;;;;;;;2.53;1.83;;;24.10;99.90;;;;;;5053664;28;20668;-80
2023/09/04 09:47:07;;;;;;;2.97;2.10;;;24.10;99.90;;;;;;5053942;28;20223;-80
2023/09/04 09:49:35;;;;;;;1.70;1.60;;;24.10;99.90;;;;;;5053721;28;20214;-80
2023/09/04 09:52:06;;;;;;;1.70;1.60;;;24.10;99.90;;;;;;5053847;28;20222;-80
2023/09/04 09:54:37;;;;;;;1.65;1.38;;;24.10;99.90;;;;;;5053970;28;20191;-80
2023/09/04 09:57:07;;;;;;;1.40;1.30;;;24.20;99.90;;;;;;5053771;28;20314;-81
2023/09/04 09:59:36;;;;;;;1.57;1.47;;;24.30;99.90;;;;;;5053788;28;20205;-81
2023/09/04 10:02:03;;;;;;;1.95;1.30;;;24.30;99.90;;;;;;5053872;28;20206;-79
2023/09/04 10:04:32;;;;;;;1.77;1.67;;;24.30;99.90;;;;;;5053460;28;20694;-80
2023/09/04 10:07:00;;;;;;;1.55;1.33;;;24.40;99.90;;;;;;5053335;28;20227;-79
2023/09/04 10:09:29;;;;;;;1.83;1.33;;;24.30;99.90;;;;;;5053627;28;20213;-80
2023/09/04 10:12:13;;;;;;;1.87;1.33;;;24.30;99.90;;;;;;5053212;28;20226;-79
2023/09/04 10:14:41;;;;;;;1.70;1.60;;;24.40;99.90;;;;;;5054003;28;20591;-80
2023/09/04 10:17:16;;;;;;;3.38;2.13;;;24.40;99.90;;;;;;5053194;28;20625;-78
2023/09/04 10:19:44;;;;;;;2.22;1.50;;;24.60;99.90;;;;;;5053207;28;20621;-80
2023/09/04 10:22:17;;;;;;;2.95;1.60;;;24.70;99.90;;;;;;5053426;28;20183;-82
2023/09/04 10:24:52;;;;;;;1.75;1.58;;;24.80;99.90;;;;;;5053376;28;20194;-81
2023/09/04 10:27:23;;;;;;;1.80;1.27;;;24.90;99.90;;;;;;5053050;28;20718;-80
2023/09/04 10:29:55;;;;;;;1.17;1.17;;;25.00;99.90;;;;;;5053441;28;20186;-80
2023/09/04 10:32:22;;;;;;;1.77;1.67;;;25.00;99.90;;;;;;5053132;28;20211;-80
2023/09/04 10:34:49;;;;;;;1.00;0.90;;;25.10;99.90;;;;;;5053936;28;20206;-81
2023/09/04 10:37:16;;;;;;;1.35;1.08;;;25.10;99.90;;;;;;5052754;28;20301;-82
2023/09/04 10:39:44;;;;;;;1.05;1.05;;;25.20;99.90;;;;;;5053238;28;20202;-81
2023/09/04 10:42:13;;;;;;;1.00;1.00;;;25.30;99.90;;;;;;5053180;28;20206;-81
2023/09/04 10:44:47;;;;;;;1.23;1.23;;;25.20;99.90;;;;;;5053111;28;20203;-81
2023/09/04 10:47:14;;;;;;;1.02;0.93;;;25.20;99.90;;;;;;5052849;28;20214;-80
2023/09/04 10:49:42;;;;;;;1.40;1.30;;;25.40;99.90;;;;;;5053139;28;20575;-80
2023/09/04 10:52:09;;;;;;;1.27;1.17;;;25.60;99.90;;;;;;5053809;28;20218;-81
2023/09/04 10:54:36;;;;;;;1.98;1.42;;;25.60;99.90;;;;;;5073159;28;20304;-81
2023/09/04 10:57:06;;;;;;;1.55;1.45;;;25.60;99.90;;;;;;5073093;28;20232;-81
2023/09/04 10:59:59;;;;;;;1.60;1.50;;;25.60;99.90;;;;;;5073091;28;20225;-80
2023/09/04 11:02:27;;;;;;;1.23;1.13;;;25.70;99.90;;;;;;5072768;28;20206;-80
2023/09/04 11:04:54;;;;;;;1.10;1.00;;;25.90;99.90;;;;;;5073006;28;20259;-80
2023/09/04 11:07:29;;;;;;;1.45;1.35;;;26.10;99.90;;;;;;5072949;28;20228;-81
2023/09/04 11:10:27;;;;;;;1.20;0.82;;;26.10;99.90;;;;;;5072664;28;20206;-79
2023/09/04 11:12:54;;;;;;;2.22;1.48;;;26.10;99.90;;;;;;5073014;28;20587;-80
2023/09/04 11:15:24;;;;;;;1.35;1.25;;;26.00;99.90;;;;;;5072336;28;20690;-80
2023/09/04 11:17:51;;;;;;;2.15;1.45;;;26.00;99.90;;;;;;5072983;28;20244;-81
2023/09/04 11:20:23;;;;;;;1.10;1.00;;;25.90;99.90;;;;;;5073125;28;20202;-81
2023/09/04 11:22:49;;;;;;;1.67;1.42;;;25.80;99.90;;;;;;5072606;28;20677;-80
2023/09/04 11:25:16;;;;;;;1.23;1.10;;;25.70;99.90;;;;;;5072737;28;20244;-80
2023/09/04 11:27:44;;;;;;;1.42;1.33;;;25.80;99.90;;;;;;5072283;28;20721;-81
2023/09/04 11:30:12;;;;;;;1.45;1.35;;;25.80;99.90;;;;;;5072564;28;20288;-80
2023/09/04 11:32:41;;;;;;;1.25;1.15;;;25.80;99.90;;;;;;5072679;28;20244;-83
2023/09/04 11:35:12;;;;;;;1.27;0.90;;;25.80;99.90;;;;;;5072346;28;20194;-81
2023/09/04 11:37:39;;;;;;;1.25;1.15;;;25.80;99.90;;;;;;5072529;28;20257;-81
2023/09/04 11:40:08;;;;;;;1.77;0.98;;;25.80;99.90;;;;;;5072480;28;20686;-80
2023/09/04 11:42:35;;;;;;;1.40;1.30;;;25.90;99.90;;;;;;5072654;28;20190;-80
2023/09/04 11:45:03;;;;;;;2.67;1.13;;;25.90;99.90;;;;;;5072571;28;20194;-80
2023/09/04 11:47:29;;;;;;;1.40;1.30;;;26.00;99.90;;;;;;5072562;28;20206;-80
2023/09/04 11:49:58;;;;;;;1.23;1.10;;;26.00;99.90;;;;;;5074878;28;20213;-80
2023/09/04 11:52:26;;;;;;;1.35;1.17;;;25.90;99.90;;;;;;5075919;28;20221;-79
2023/09/04 11:54:54;;;;;;;1.08;0.90;;;25.90;99.90;;;;;;5076240;28;20190;-80
2023/09/04 11:57:22;;;;;;;0.90;0.90;;;25.90;99.90;;;;;;5075834;28;20217;-81
2023/09/04 11:59:49;;;;;;;1.55;1.30;;;25.80;99.90;;;;;;5076090;28;20289;-79
2023/09/04 12:02:16;;;;;;;1.20;1.00;;;25.90;99.90;;;;;;5076063;28;20198;-80
2023/09/04 12:04:45;;;;;;;1.13;1.02;;;25.90;99.80;;;;;;5076051;28;20205;-80
2023/09/04 12:07:16;;;;;;;1.00;0.90;;;25.90;99.70;;;;;;5075881;28;20280;-81
2023/09/04 12:09:42;;;;;;;1.10;1.00;;;25.80;99.30;;;;;;5076187;28;20194;-82
2023/09/04 12:12:09;;;;;;;1.58;1.45;;;25.60;99.00;;;;;;5075829;28;20223;-77
2023/09/04 12:14:36;;;;;;;1.45;1.15;;;25.50;97.50;;;;;;5075865;28;20217;-81
2023/09/04 12:17:10;;;;;;;1.58;1.08;;;25.50;97.80;;;;;;5075708;28;20218;-82
2023/09/04 12:19:37;;;;;;;1.38;1.27;;;25.60;98.50;;;;;;5075838;28;20186;-81
2023/09/04 12:22:11;;;;;;;1.40;1.30;;;25.60;98.80;;;;;;5075822;28;20198;-81
2023/09/04 12:24:39;;;;;;;1.83;1.13;;;25.50;99.40;;;;;;5075677;28;20201;-80
2023/09/04 12:27:07;;;;;;;1.02;0.90;;;25.50;98.90;;;;;;5075346;28;20222;-81
2023/09/04 12:29:35;;;;;;;1.08;0.98;;;25.60;98.30;;;;;;5075397;28;20238;-81
2023/09/04 12:32:03;;;;;;;1.80;1.15;;;25.50;96.50;;;;;;5075225;28;20198;-81
2023/09/04 12:34:31;;;;;;;1.17;1.08;;;25.40;97.40;;;;;;5075500;28;20225;-82
2023/09/04 12:36:58;;;;;;;1.23;0.93;;;25.30;98.70;;;;;;5075034;28;20229;-83
2023/09/04 12:39:24;;;;;;;1.67;0.93;;;25.30;98.40;;;;;;5075061;28;20201;-81
2023/09/04 12:42:01;;;;;;;4.40;1.35;;;25.40;97.30;;;;;;5075608;28;20210;-81
2023/09/04 12:44:28;;;;;;;1.13;0.93;;;25.40;97.60;;;;;;5075314;28;20201;-81
2023/09/04 12:46:55;;;;;;;2.90;1.30;;;25.30;97.50;;;;;;5075221;28;20258;-82
2023/09/04 12:49:22;;;;;;;1.20;1.10;;;25.10;98.00;;;;;;5075198;28;20205;-84
2023/09/04 12:51:49;;;;;;;1.95;1.00;;;25.20;97.20;;;;;;5075023;28;20206;-81